Time;durP1;ratioP1;P1;durP2;ratioP2;P2;SDS_P1;SDS_P2;PMS_P1;PMS_P2;Temp;Humidity;BMP_temperature;BMP_pressure;BME280_temperature;BME280_humidity;BME280_pressure;Samples;Min_cycle;Max_cycle;Signal;HPM_P1;HPM_P2
2023/12/08 00:00:45;;;;;;;111.20;67.70;;;;;;;;;;103521;1292;548018;-81
2023/12/08 00:04:17;;;;;;;111.50;69.00;;;;;;;;;;103771;1292;544782;-76
2023/12/08 00:08:01;;;;;;;113.30;70.60;;;;;;;;;;104464;1282;544934;-81
2023/12/08 00:11:27;;;;;;;108.70;64.20;;;;;;;;;;103558;1293;545448;-74
2023/12/08 00:15:25;;;;;;;106.50;61.10;;;;;;;;;;103757;1289;545425;-76
2023/12/08 00:18:42;;;;;;;99.70;62.60;;;;;;;;;;103850;1289;545507;-76
2023/12/08 00:22:32;;;;;;;105.60;63.70;;;;;;;;;;103594;1295;548185;-74
2023/12/08 00:25:56;;;;;;;107.10;63.80;;;;;;;;;;103899;1290;544948;-75
2023/12/08 00:29:37;;;;;;;89.10;53.60;;;;;;;;;;103647;1290;546766;-78
2023/12/08 00:33:17;;;;;;;88.70;51.30;;;;;;;;;;103862;1292;545344;-76
2023/12/08 00:37:01;;;;;;;;;;;;;;;;;;;;;
2023/12/08 00:40:29;;;;;;;79.90;49.80;;;;;;;;;;103604;1292;544909;-77
2023/12/08 00:44:25;;;;;;;;;;;;;;;;;;;;;
2023/12/08 00:47:44;;;;;;;87.30;53.60;;;;;;;;;;103702;1292;544969;-75
2023/12/08 00:51:32;;;;;;;75.00;45.90;;;;;;;;;;103558;1300;545444;-75
2023/12/08 00:55:01;;;;;;;74.60;43.30;;;;;;;;;;103922;1290;545800;-75
2023/12/08 00:58:56;;;;;;;68.50;42.80;;;;;;;;;;103645;1291;549062;-78
2023/12/08 01:11:23;;;;;;;76.30;45.80;;;;;;;;;;105099;1279;546599;-82
2023/12/08 01:14:41;;;;;;;72.90;45.40;;;;;;;;;;103570;1295;545260;-81
2023/12/08 01:18:00;;;;;;;79.30;48.10;;;;;;;;;;103796;1289;544934;-80
2023/12/08 01:22:03;;;;;;;74.40;47.80;;;;;;;;;;103503;1297;549204;-79
2023/12/08 01:25:54;;;;;;;78.10;46.50;;;;;;;;;;103626;1292;545504;-74
2023/12/08 01:29:24;;;;;;;73.70;46.00;;;;;;;;;;103772;1291;546189;-75
2023/12/08 01:33:03;;;;;;;76.60;46.40;;;;;;;;;;103735;1295;544966;-75
2023/12/08 01:37:00;;;;;;;;;;;;;;;;;;;;;
2023/12/08 01:40:13;;;;;;;83.80;52.00;;;;;;;;;;104615;1282;544788;-77
2023/12/08 01:44:05;;;;;;;83.20;49.40;;;;;;;;;;104287;1288;545016;-75
2023/12/08 01:47:34;;;;;;;88.60;50.30;;;;;;;;;;103694;1290;545603;-82
2023/12/08 01:51:12;;;;;;;82.00;49.70;;;;;;;;;;103917;1289;544807;-76
2023/12/08 01:54:46;;;;;;;113.60;61.10;;;;;;;;;;103794;1289;544799;-78
2023/12/08 01:58:30;;;;;;;114.90;65.60;;;;;;;;;;103633;1291;544881;-75
2023/12/08 02:02:10;;;;;;;121.70;70.60;;;;;;;;;;103478;1296;545548;-87
2023/12/08 02:06:13;;;;;;;113.30;63.70;;;;;;;;;;103496;1294;548404;-83
2023/12/08 02:09:12;;;;;;;116.80;62.00;;;;;;;;;;103887;1289;545902;-75
2023/12/08 02:13:16;;;;;;;133.10;69.20;;;;;;;;;;103652;1303;545098;-76
2023/12/08 02:16:40;;;;;;;137.90;76.40;;;;;;;;;;103705;1289;544743;-77
2023/12/08 02:20:10;;;;;;;137.20;74.80;;;;;;;;;;103650;1291;545099;-75
2023/12/08 02:24:03;;;;;;;118.20;64.60;;;;;;;;;;103683;1294;545505;-75
2023/12/08 02:27:22;;;;;;;96.20;54.50;;;;;;;;;;103568;1295;545084;-75
2023/12/08 02:31:21;;;;;;;;;;;;;;;;;;;;;
2023/12/08 02:34:39;;;;;;;92.60;57.00;;;;;;;;;;103657;1295;546633;-76
2023/12/08 02:38:26;;;;;;;91.50;56.80;;;;;;;;;;103705;1297;548074;-87
2023/12/08 02:42:04;;;;;;;83.70;50.60;;;;;;;;;;103770;1292;544877;-80
2023/12/08 02:45:31;;;;;;;77.70;46.50;;;;;;;;;;103929;1289;545701;-78
2023/12/08 02:49:13;;;;;;;74.40;44.90;;;;;;;;;;103764;1292;548636;-79
2023/12/08 02:53:01;;;;;;;71.50;45.60;;;;;;;;;;103869;1292;545015;-75
2023/12/08 03:00:52;;;;;;;58.40;35.70;;;;;;;;;;103848;1291;545167;-81
2023/12/08 03:04:33;;;;;;;58.50;38.60;;;;;;;;;;103774;1290;545008;-84
2023/12/08 03:09:13;;;;;;;;;;;;;;;;;;;;;
2023/12/08 03:12:26;;;;;;;74.90;44.50;;;;;;;;;;103962;1292;545109;-75
2023/12/08 03:15:52;;;;;;;66.50;38.30;;;;;;;;;;103717;1292;545224;-85
2023/12/08 03:19:38;;;;;;;63.80;36.60;;;;;;;;;;103619;1294;548034;-87
2023/12/08 03:23:03;;;;;;;58.80;36.40;;;;;;;;;;103786;1289;545056;-78
2023/12/08 03:26:54;;;;;;;57.00;38.00;;;;;;;;;;103169;1300;545447;-87
2023/12/08 03:30:17;;;;;;;63.30;42.20;;;;;;;;;;103776;1295;544770;-76
2023/12/08 03:34:12;;;;;;;59.10;38.40;;;;;;;;;;103730;1295;545791;-77
2023/12/08 03:37:38;;;;;;;56.50;36.20;;;;;;;;;;103761;1289;549334;-86
2023/12/08 03:41:52;;;;;;;61.70;39.00;;;;;;;;;;103709;1289;548094;-84
2023/12/08 03:44:42;;;;;;;63.10;41.10;;;;;;;;;;103608;1295;544982;-78
2023/12/08 03:49:08;;;;;;;68.60;43.40;;;;;;;;;;103710;1294;545940;-81
2023/12/08 03:52:11;;;;;;;;;;;;;;;;;;;;;
2023/12/08 03:55:43;;;;;;;59.30;35.60;;;;;;;;;;103847;1291;545240;-81
2023/12/08 04:02:50;;;;;;;55.00;35.80;;;;;;;;;;103985;1289;544796;-77
2023/12/08 04:06:28;;;;;;;60.90;37.80;;;;;;;;;;104132;1285;544767;-77
2023/12/08 04:10:06;;;;;;;54.10;33.10;;;;;;;;;;104712;1282;545521;-78
2023/12/08 04:13:47;;;;;;;56.10;33.80;;;;;;;;;;103746;1291;545922;-76
2023/12/08 04:17:20;;;;;;;61.80;39.10;;;;;;;;;;103943;1288;545186;-78
2023/12/08 04:21:03;;;;;;;80.80;52.50;;;;;;;;;;103611;1295;546496;-79
2023/12/08 04:24:39;;;;;;;77.50;49.00;;;;;;;;;;103810;1289;544973;-77
2023/12/08 04:28:16;;;;;;;73.90;45.00;;;;;;;;;;104140;1289;544788;-76
2023/12/08 04:31:53;;;;;;;67.70;40.40;;;;;;;;;;103842;1295;545030;-76
2023/12/08 04:35:28;;;;;;;89.10;51.20;;;;;;;;;;103971;1289;545809;-76
2023/12/08 04:39:01;;;;;;;112.70;62.50;;;;;;;;;;104063;1289;544980;-76
2023/12/08 04:42:42;;;;;;;109.10;60.40;;;;;;;;;;103797;1289;544938;-77
2023/12/08 04:46:20;;;;;;;99.90;53.10;;;;;;;;;;103748;1291;544963;-76
2023/12/08 04:49:59;;;;;;;92.00;48.00;;;;;;;;;;103805;1292;544814;-77
2023/12/08 04:53:35;;;;;;;93.20;47.40;;;;;;;;;;104196;1285;544787;-76
2023/12/08 04:57:12;;;;;;;87.10;47.40;;;;;;;;;;103926;1288;545341;-76
2023/12/08 05:00:54;;;;;;;71.40;43.50;;;;;;;;;;103816;1292;544838;-76
2023/12/08 05:04:27;;;;;;;74.00;44.70;;;;;;;;;;104076;1289;544786;-77
2023/12/08 05:08:05;;;;;;;67.80;38.50;;;;;;;;;;103604;1297;544967;-77
2023/12/08 05:11:42;;;;;;;65.50;37.50;;;;;;;;;;104031;1287;544957;-77
2023/12/08 05:15:21;;;;;;;68.60;40.00;;;;;;;;;;103819;1290;545613;-77
2023/12/08 05:18:57;;;;;;;59.10;39.60;;;;;;;;;;103864;1288;546080;-76
2023/12/08 05:22:34;;;;;;;58.60;36.90;;;;;;;;;;103783;1289;545399;-76
2023/12/08 05:26:12;;;;;;;56.70;34.90;;;;;;;;;;103696;1291;544959;-75
2023/12/08 05:29:55;;;;;;;56.70;33.60;;;;;;;;;;103793;1292;545012;-76
2023/12/08 05:33:27;;;;;;;53.60;33.60;;;;;;;;;;103824;1291;545404;-75
2023/12/08 05:37:04;;;;;;;50.10;31.80;;;;;;;;;;103754;1291;545175;-76
2023/12/08 05:40:42;;;;;;;53.50;33.30;;;;;;;;;;104020;1288;544731;-75
2023/12/08 05:44:20;;;;;;;54.30;35.30;;;;;;;;;;103660;1294;545524;-75
2023/12/08 05:47:57;;;;;;;50.40;31.20;;;;;;;;;;103804;1291;545481;-74
2023/12/08 05:51:34;;;;;;;45.30;29.80;;;;;;;;;;103772;1292;545337;-75
2023/12/08 05:55:12;;;;;;;49.30;31.50;;;;;;;;;;103934;1288;545322;-75
2023/12/08 05:58:49;;;;;;;49.40;32.50;;;;;;;;;;103934;1292;545486;-75
2023/12/08 06:02:26;;;;;;;49.40;32.30;;;;;;;;;;104137;1286;544775;-75
2023/12/08 06:06:03;;;;;;;46.00;29.90;;;;;;;;;;103817;1291;545357;-75
2023/12/08 06:09:41;;;;;;;41.10;26.00;;;;;;;;;;104120;1289;544979;-75
2023/12/08 06:13:21;;;;;;;43.00;27.60;;;;;;;;;;103800;1288;546178;-74
2023/12/08 06:16:56;;;;;;;47.50;29.80;;;;;;;;;;103795;1290;545606;-75
2023/12/08 06:20:34;;;;;;;50.90;32.60;;;;;;;;;;103782;1292;545137;-75
2023/12/08 06:24:11;;;;;;;52.40;33.60;;;;;;;;;;104518;1282;545911;-75
2023/12/08 06:31:53;;;;;;;40.90;28.20;;;;;;;;;;103889;1292;544728;-75
2023/12/08 06:35:31;;;;;;;44.70;30.10;;;;;;;;;;103811;1292;545658;-75
2023/12/08 06:39:08;;;;;;;50.00;32.40;;;;;;;;;;103871;1291;544786;-76
2023/12/08 06:43:07;;;;;;;49.10;32.40;;;;;;;;;;104634;1282;544993;-75
2023/12/08 06:46:26;;;;;;;46.50;31.10;;;;;;;;;;104164;1289;545265;-74
2023/12/08 06:50:01;;;;;;;47.60;31.50;;;;;;;;;;103760;1302;545044;-74
2023/12/08 06:53:42;;;;;;;56.90;36.00;;;;;;;;;;103786;1292;545877;-74
2023/12/08 06:57:16;;;;;;;50.50;32.80;;;;;;;;;;103784;1289;546530;-75
2023/12/08 07:00:59;;;;;;;44.90;27.90;;;;;;;;;;103596;1294;547787;-74
2023/12/08 07:04:30;;;;;;;37.10;23.10;;;;;;;;;;103817;1291;544933;-74
2023/12/08 07:08:08;;;;;;;32.40;20.00;;;;;;;;;;103794;1289;545772;-74
2023/12/08 07:11:45;;;;;;;37.80;22.10;;;;;;;;;;103800;1289;545695;-75
2023/12/08 07:15:23;;;;;;;40.00;24.20;;;;;;;;;;103774;1290;545000;-75
2023/12/08 07:19:00;;;;;;;40.00;25.00;;;;;;;;;;103855;1294;545016;-75
2023/12/08 07:22:55;;;;;;;38.40;23.70;;;;;;;;;;103634;1291;544899;-75
2023/12/08 07:26:17;;;;;;;36.50;22.70;;;;;;;;;;103809;1291;545023;-74
2023/12/08 07:29:53;;;;;;;37.40;24.40;;;;;;;;;;103786;1292;545772;-74
2023/12/08 07:33:33;;;;;;;37.30;24.70;;;;;;;;;;103842;1289;544821;-75
2023/12/08 07:37:08;;;;;;;40.90;26.90;;;;;;;;;;103844;1290;544798;-76
2023/12/08 07:40:45;;;;;;;37.50;24.90;;;;;;;;;;103823;1289;544822;-75
2023/12/08 07:44:19;;;;;;;39.40;26.00;;;;;;;;;;103904;1289;544971;-76
2023/12/08 07:48:11;;;;;;;41.00;27.50;;;;;;;;;;103760;1291;545942;-75
2023/12/08 07:51:38;;;;;;;44.60;30.30;;;;;;;;;;103974;1289;544954;-74
2023/12/08 07:55:16;;;;;;;51.40;36.20;;;;;;;;;;103958;1292;546059;-74
2023/12/08 07:58:53;;;;;;;43.20;28.00;;;;;;;;;;103829;1292;545322;-74
2023/12/08 08:02:31;;;;;;;35.70;24.00;;;;;;;;;;103956;1289;544797;-75
2023/12/08 08:06:09;;;;;;;35.70;23.20;;;;;;;;;;103987;1289;545399;-75
2023/12/08 08:09:45;;;;;;;39.30;26.40;;;;;;;;;;103792;1292;545974;-75
2023/12/08 08:13:26;;;;;;;37.70;26.10;;;;;;;;;;104058;1288;545088;-75
2023/12/08 08:17:01;;;;;;;38.30;24.90;;;;;;;;;;103739;1290;546249;-76
2023/12/08 08:20:37;;;;;;;37.00;24.30;;;;;;;;;;103599;1298;544982;-74
2023/12/08 08:24:15;;;;;;;42.70;28.70;;;;;;;;;;103779;1295;545040;-76
2023/12/08 08:27:53;;;;;;;48.30;33.60;;;;;;;;;;103799;1289;544854;-75
2023/12/08 08:31:33;;;;;;;50.60;33.60;;;;;;;;;;103612;1295;545554;-75
2023/12/08 08:35:07;;;;;;;47.70;30.40;;;;;;;;;;103522;1291;545095;-75
2023/12/08 08:38:55;;;;;;;39.20;24.20;;;;;;;;;;103805;1291;545122;-76
2023/12/08 08:42:23;;;;;;;43.70;23.90;;;;;;;;;;104682;1281;545058;-77
2023/12/08 08:45:59;;;;;;;54.90;21.00;;;;;;;;;;103796;1289;544894;-76
2023/12/08 08:49:50;;;;;;;48.00;19.60;;;;;;;;;;103784;1301;544989;-75
2023/12/08 08:53:16;;;;;;;31.50;18.70;;;;;;;;;;103739;1295;544892;-75
2023/12/08 08:56:53;;;;;;;29.80;15.70;;;;;;;;;;103820;1290;544816;-76
2023/12/08 09:00:30;;;;;;;28.70;17.80;;;;;;;;;;103785;1294;544986;-75
2023/12/08 09:04:08;;;;;;;30.10;19.60;;;;;;;;;;103938;1289;545931;-76
2023/12/08 09:07:45;;;;;;;43.20;21.90;;;;;;;;;;103778;1292;545124;-75
2023/12/08 09:11:22;;;;;;;50.40;27.50;;;;;;;;;;103566;1297;545144;-76
2023/12/08 09:14:58;;;;;;;37.20;21.40;;;;;;;;;;103969;1296;544698;-76
2023/12/08 09:18:37;;;;;;;42.50;27.80;;;;;;;;;;103800;1291;544915;-76
2023/12/08 09:22:17;;;;;;;44.10;30.50;;;;;;;;;;103910;1289;544999;-77
2023/12/08 09:25:53;;;;;;;38.00;25.70;;;;;;;;;;103874;1289;544971;-76
2023/12/08 09:29:32;;;;;;;31.10;20.80;;;;;;;;;;103791;1289;545619;-77
2023/12/08 09:33:17;;;;;;;30.60;21.10;;;;;;;;;;103949;1292;547807;-76
2023/12/08 09:36:44;;;;;;;33.90;24.00;;;;;;;;;;103595;1295;545171;-76
2023/12/08 09:40:23;;;;;;;37.40;25.10;;;;;;;;;;103782;1290;544877;-77
2023/12/08 09:44:03;;;;;;;46.90;30.20;;;;;;;;;;103828;1289;544890;-78
2023/12/08 09:47:39;;;;;;;38.60;25.50;;;;;;;;;;103920;1288;545484;-77
2023/12/08 09:51:18;;;;;;;35.70;24.00;;;;;;;;;;103765;1291;544992;-78
2023/12/08 09:55:05;;;;;;;39.20;26.70;;;;;;;;;;103419;1295;547793;-78
2023/12/08 09:58:26;;;;;;;39.20;27.20;;;;;;;;;;103881;1289;544782;-79
2023/12/08 10:02:35;;;;;;;49.00;32.90;;;;;;;;;;103442;1306;548128;-78
2023/12/08 10:06:05;;;;;;;42.30;29.80;;;;;;;;;;103744;1290;545043;-75
2023/12/08 10:09:22;;;;;;;35.40;23.10;;;;;;;;;;103857;1289;544782;-79
2023/12/08 10:13:09;;;;;;;35.30;22.70;;;;;;;;;;104103;1286;545009;-79
2023/12/08 10:16:46;;;;;;;36.30;23.80;;;;;;;;;;103255;1297;549244;-80
2023/12/08 10:20:13;;;;;;;41.10;26.90;;;;;;;;;;103594;1293;544776;-77
2023/12/08 10:24:20;;;;;;;43.80;30.00;;;;;;;;;;104009;1286;546003;-79
2023/12/08 10:27:38;;;;;;;43.10;28.90;;;;;;;;;;103804;1289;544969;-79
2023/12/08 10:31:41;;;;;;;43.10;26.60;;;;;;;;;;103430;1296;548101;-83
2023/12/08 10:34:58;;;;;;;;;;;;;;;;;;;;;
2023/12/08 10:38:31;;;;;;;39.20;25.30;;;;;;;;;;103621;1292;547992;-79
2023/12/08 10:42:19;;;;;;;38.30;25.20;;;;;;;;;;103693;1292;546063;-78
2023/12/08 10:45:42;;;;;;;32.70;22.10;;;;;;;;;;103780;1291;545117;-79
2023/12/08 10:49:23;;;;;;;34.70;22.70;;;;;;;;;;103818;1286;547784;-81
2023/12/08 10:52:58;;;;;;;35.60;22.80;;;;;;;;;;103703;1291;547961;-79
2023/12/08 10:56:53;;;;;;;35.00;23.50;;;;;;;;;;103479;1293;546294;-78
2023/12/08 11:00:18;;;;;;;35.60;24.10;;;;;;;;;;103642;1295;546040;-80
2023/12/08 11:03:57;;;;;;;36.60;24.50;;;;;;;;;;103615;1291;545460;-80
2023/12/08 11:07:32;;;;;;;36.40;24.20;;;;;;;;;;103503;1297;549157;-79
2023/12/08 11:11:26;;;;;;;33.10;21.00;;;;;;;;;;103890;1293;545937;-77
2023/12/08 11:14:57;;;;;;;34.80;22.10;;;;;;;;;;103701;1290;548078;-78
2023/12/08 11:18:26;;;;;;;33.80;22.30;;;;;;;;;;103677;1294;545925;-79
2023/12/08 11:22:19;;;;;;;;;;;;;;;;;;;;;
2023/12/08 11:25:39;;;;;;;36.80;24.80;;;;;;;;;;103629;1292;545674;-77
2023/12/08 11:29:26;;;;;;;37.00;25.20;;;;;;;;;;103886;1289;544864;-78
2023/12/08 11:33:15;;;;;;;33.30;22.40;;;;;;;;;;104113;1288;548468;-80
2023/12/08 11:36:22;;;;;;;32.50;21.40;;;;;;;;;;103635;1292;546049;-77
2023/12/08 11:40:18;;;;;;;34.10;22.20;;;;;;;;;;103830;1291;545418;-75
2023/12/08 11:44:00;;;;;;;36.00;24.00;;;;;;;;;;103624;1291;546576;-79
2023/12/08 11:47:19;;;;;;;36.10;24.00;;;;;;;;;;103616;1297;544923;-78
2023/12/08 11:50:59;;;;;;;34.50;23.10;;;;;;;;;;104041;1289;545113;-76
2023/12/08 11:54:52;;;;;;;35.50;24.40;;;;;;;;;;103772;1289;547801;-75
2023/12/08 11:58:23;;;;;;;35.10;22.70;;;;;;;;;;103666;1289;549668;-76
2023/12/08 12:01:47;;;;;;;34.70;23.10;;;;;;;;;;103576;1298;545785;-76
2023/12/08 12:05:27;;;;;;;34.40;23.90;;;;;;;;;;103745;1291;545705;-78
2023/12/08 12:08:59;;;;;;;42.10;26.80;;;;;;;;;;103774;1295;545002;-77
2023/12/08 12:12:41;;;;;;;41.80;28.00;;;;;;;;;;103572;1295;544800;-76
2023/12/08 12:16:19;;;;;;;41.40;27.80;;;;;;;;;;103926;1292;546071;-76
2023/12/08 12:19:52;;;;;;;44.00;28.30;;;;;;;;;;103777;1289;545040;-77
2023/12/08 12:23:30;;;;;;;40.00;24.60;;;;;;;;;;103805;1291;545110;-78
2023/12/08 12:27:09;;;;;;;39.20;24.60;;;;;;;;;;103714;1294;545367;-75
2023/12/08 12:30:48;;;;;;;38.30;25.90;;;;;;;;;;103730;1294;546553;-77
2023/12/08 12:34:21;;;;;;;40.60;26.30;;;;;;;;;;103902;1289;544779;-77
2023/12/08 12:37:58;;;;;;;40.10;26.50;;;;;;;;;;103616;1294;545173;-75
2023/12/08 12:41:36;;;;;;;42.70;27.80;;;;;;;;;;103921;1288;545017;-77
2023/12/08 12:45:27;;;;;;;43.30;30.10;;;;;;;;;;103752;1291;545951;-76
2023/12/08 12:48:52;;;;;;;46.70;28.80;;;;;;;;;;103607;1298;544847;-75
2023/12/08 12:52:30;;;;;;;45.80;30.50;;;;;;;;;;103910;1291;544889;-75
2023/12/08 12:56:07;;;;;;;44.20;30.60;;;;;;;;;;103940;1289;545023;-75
2023/12/08 12:59:50;;;;;;;42.40;32.50;;;;;;;;;;103730;1292;548010;-76
2023/12/08 13:03:22;;;;;;;39.20;25.70;;;;;;;;;;103798;1291;545040;-75
2023/12/08 13:06:58;;;;;;;37.90;25.50;;;;;;;;;;103829;1294;544974;-76
2023/12/08 13:10:39;;;;;;;39.10;27.70;;;;;;;;;;103900;1289;544914;-76
2023/12/08 13:14:13;;;;;;;46.00;29.40;;;;;;;;;;103795;1291;546016;-77
2023/12/08 13:18:14;;;;;;;44.30;27.40;;;;;;;;;;103530;1297;545397;-74
2023/12/08 13:21:36;;;;;;;59.30;37.70;;;;;;;;;;103962;1289;545692;-77
2023/12/08 13:25:06;;;;;;;59.20;38.40;;;;;;;;;;103772;1289;544766;-75
2023/12/08 13:28:57;;;;;;;48.20;32.40;;;;;;;;;;103585;1292;546350;-79
2023/12/08 13:32:21;;;;;;;52.80;35.60;;;;;;;;;;103707;1291;545906;-76
2023/12/08 13:36:01;;;;;;;50.40;33.30;;;;;;;;;;103806;1289;548099;-76
2023/12/08 13:39:47;;;;;;;46.40;31.80;;;;;;;;;;103690;1292;548062;-77
2023/12/08 13:43:15;;;;;;;49.00;34.30;;;;;;;;;;103833;1289;546424;-76
2023/12/08 13:46:53;;;;;;;51.20;33.90;;;;;;;;;;103787;1302;545015;-77
2023/12/08 13:50:28;;;;;;;55.50;34.80;;;;;;;;;;104303;1283;545926;-78
2023/12/08 13:54:07;;;;;;;54.20;35.30;;;;;;;;;;103884;1289;546314;-76
2023/12/08 13:57:43;;;;;;;51.90;31.20;;;;;;;;;;103816;1303;545748;-76
2023/12/08 14:01:21;;;;;;;53.90;31.20;;;;;;;;;;103781;1295;545555;-76
2023/12/08 14:04:54;;;;;;;53.30;32.70;;;;;;;;;;103833;1289;545451;-76
2023/12/08 14:08:33;;;;;;;55.00;34.40;;;;;;;;;;104033;1290;544858;-79
2023/12/08 14:12:17;;;;;;;57.80;36.80;;;;;;;;;;103788;1292;545960;-75
2023/12/08 14:15:52;;;;;;;65.90;41.40;;;;;;;;;;103648;1295;545671;-76
2023/12/08 14:19:35;;;;;;;72.70;41.30;;;;;;;;;;103962;1292;548077;-75
2023/12/08 14:23:05;;;;;;;61.80;36.30;;;;;;;;;;103856;1289;544932;-77
2023/12/08 14:26:40;;;;;;;54.00;33.50;;;;;;;;;;104621;1285;545599;-75
2023/12/08 14:30:29;;;;;;;56.90;34.60;;;;;;;;;;103714;1298;549209;-80
2023/12/08 14:34:19;;;;;;;61.00;38.40;;;;;;;;;;103650;1294;547006;-80
2023/12/08 14:37:38;;;;;;;65.60;42.30;;;;;;;;;;104008;1288;545282;-76
2023/12/08 14:41:15;;;;;;;61.40;40.80;;;;;;;;;;103716;1291;544898;-76
2023/12/08 14:44:55;;;;;;;56.50;36.50;;;;;;;;;;103719;1294;546706;-78
2023/12/08 14:48:38;;;;;;;52.90;34.60;;;;;;;;;;103840;1292;545351;-77
2023/12/08 14:52:07;;;;;;;51.20;33.60;;;;;;;;;;103725;1295;545625;-78
2023/12/08 14:55:46;;;;;;;53.20;35.30;;;;;;;;;;103742;1289;544943;-78
2023/12/08 14:59:32;;;;;;;45.00;28.00;;;;;;;;;;103601;1295;546692;-82
2023/12/08 15:03:14;;;;;;;38.00;22.10;;;;;;;;;;103657;1292;547947;-80
2023/12/08 15:06:45;;;;;;;43.70;24.30;;;;;;;;;;103768;1290;545066;-77
2023/12/08 15:10:32;;;;;;;;;;;;;;;;;;;;;
2023/12/08 15:13:57;;;;;;;37.80;21.80;;;;;;;;;;103601;1290;548026;-79
2023/12/08 15:17:27;;;;;;;40.90;23.90;;;;;;;;;;103828;1289;545089;-78
2023/12/08 15:21:08;;;;;;;45.00;23.40;;;;;;;;;;103828;1292;545105;-74
2023/12/08 15:24:51;;;;;;;44.40;22.20;;;;;;;;;;103919;1294;545384;-79
2023/12/08 15:28:40;;;;;;;42.10;21.50;;;;;;;;;;103702;1292;547881;-79
2023/12/08 15:31:53;;;;;;;38.60;20.40;;;;;;;;;;103841;1289;544781;-75
2023/12/08 15:35:59;;;;;;;44.00;23.40;;;;;;;;;;103780;1298;545426;-80
2023/12/08 15:39:14;;;;;;;37.90;21.40;;;;;;;;;;103839;1289;544889;-76
2023/12/08 15:42:50;;;;;;;39.90;23.20;;;;;;;;;;103803;1290;545022;-75
2023/12/08 15:46:36;;;;;;;44.00;25.00;;;;;;;;;;103612;1294;547810;-74
2023/12/08 15:50:05;;;;;;;47.10;26.20;;;;;;;;;;103768;1289;544837;-75
2023/12/08 15:53:43;;;;;;;49.00;25.00;;;;;;;;;;103810;1292;545155;-75
2023/12/08 15:57:19;;;;;;;47.40;25.40;;;;;;;;;;103792;1295;545150;-77
2023/12/08 16:01:08;;;;;;;46.00;25.50;;;;;;;;;;103600;1291;549126;-80
2023/12/08 16:04:34;;;;;;;52.80;27.40;;;;;;;;;;103690;1292;545052;-78
2023/12/08 16:08:12;;;;;;;46.10;25.70;;;;;;;;;;103950;1289;546045;-75
2023/12/08 16:11:58;;;;;;;38.80;22.60;;;;;;;;;;103401;1298;545386;-73
2023/12/08 16:15:32;;;;;;;37.80;20.40;;;;;;;;;;103693;1290;545602;-77
2023/12/08 16:19:11;;;;;;;39.50;22.20;;;;;;;;;;103737;1294;545475;-76
2023/12/08 16:22:46;;;;;;;33.20;21.70;;;;;;;;;;103697;1292;547843;-76
2023/12/08 16:27:08;;;;;;;34.80;21.80;;;;;;;;;;103641;1295;547765;-79
2023/12/08 16:29:52;;;;;;;35.70;20.30;;;;;;;;;;104537;1289;545025;-77
2023/12/08 16:33:34;;;;;;;45.30;22.60;;;;;;;;;;103864;1289;546112;-76
2023/12/08 16:37:22;;;;;;;40.00;22.20;;;;;;;;;;103700;1292;545356;-81
2023/12/08 16:40:50;;;;;;;42.40;23.40;;;;;;;;;;103786;1291;544989;-77
2023/12/08 16:44:30;;;;;;;43.00;24.30;;;;;;;;;;103741;1293;545352;-75
2023/12/08 16:48:24;;;;;;;40.10;22.10;;;;;;;;;;103670;1291;545134;-75
2023/12/08 16:51:41;;;;;;;35.40;20.50;;;;;;;;;;103841;1289;545021;-74
2023/12/08 16:55:25;;;;;;;39.00;22.50;;;;;;;;;;103751;1289;547948;-78
2023/12/08 16:58:56;;;;;;;39.90;23.20;;;;;;;;;;103748;1289;545104;-75
2023/12/08 17:02:33;;;;;;;35.40;21.80;;;;;;;;;;104305;1286;544924;-75
2023/12/08 17:06:19;;;;;;;33.00;20.70;;;;;;;;;;104092;1287;546203;-75
2023/12/08 17:09:48;;;;;;;34.20;20.90;;;;;;;;;;103996;1288;544949;-77
2023/12/08 17:13:45;;;;;;;31.90;19.80;;;;;;;;;;103875;1292;546007;-77
2023/12/08 17:17:04;;;;;;;29.40;19.40;;;;;;;;;;103729;1292;544823;-78
2023/12/08 17:20:41;;;;;;;32.90;20.20;;;;;;;;;;103774;1291;545606;-74
2023/12/08 17:24:26;;;;;;;26.10;16.60;;;;;;;;;;103589;1291;549010;-78
2023/12/08 17:28:05;;;;;;;;;;;;;;;;;;;;;
2023/12/08 17:31:34;;;;;;;26.70;17.50;;;;;;;;;;103812;1288;545615;-79
2023/12/08 17:35:11;;;;;;;29.60;18.80;;;;;;;;;;103802;1292;544720;-74
2023/12/08 17:38:57;;;;;;;30.90;22.40;;;;;;;;;;103639;1292;548110;-81
2023/12/08 17:42:34;;;;;;;27.30;17.10;;;;;;;;;;103775;1302;545497;-80
2023/12/08 17:46:31;;;;;;;22.50;14.60;;;;;;;;;;103662;1295;548043;-80
2023/12/08 17:49:43;;;;;;;28.90;17.50;;;;;;;;;;103761;1291;544967;-75
2023/12/08 17:53:42;;;;;;;32.90;21.40;;;;;;;;;;103715;1292;544820;-75
2023/12/08 17:57:04;;;;;;;33.80;22.40;;;;;;;;;;103685;1295;545247;-78
2023/12/08 18:00:33;;;;;;;30.90;20.70;;;;;;;;;;103903;1289;545075;-75
2023/12/08 18:04:10;;;;;;;36.30;22.50;;;;;;;;;;103786;1292;545331;-77
2023/12/08 18:07:51;;;;;;;29.50;18.80;;;;;;;;;;103768;1289;547996;-76
2023/12/08 18:11:36;;;;;;;29.80;20.00;;;;;;;;;;103815;1294;547867;-81
2023/12/08 18:15:05;;;;;;;32.30;21.60;;;;;;;;;;103775;1299;545019;-75
2023/12/08 18:18:40;;;;;;;33.50;20.40;;;;;;;;;;103787;1289;545118;-74
2023/12/08 18:22:18;;;;;;;25.30;17.00;;;;;;;;;;103745;1291;544930;-75
2023/12/08 18:26:01;;;;;;;24.60;16.00;;;;;;;;;;103872;1289;544986;-77
2023/12/08 18:29:33;;;;;;;21.40;14.10;;;;;;;;;;103775;1290;545921;-76
2023/12/08 18:33:16;;;;;;;21.60;14.60;;;;;;;;;;103578;1306;547519;-76
2023/12/08 18:36:48;;;;;;;22.00;14.20;;;;;;;;;;103790;1291;545474;-79
2023/12/08 18:40:25;;;;;;;23.40;14.30;;;;;;;;;;103756;1289;545985;-75
2023/12/08 18:44:06;;;;;;;24.10;15.30;;;;;;;;;;103761;1296;545463;-75
2023/12/08 18:47:41;;;;;;;22.60;15.00;;;;;;;;;;103711;1292;545876;-79
2023/12/08 18:51:21;;;;;;;24.90;16.40;;;;;;;;;;103731;1289;544837;-81
2023/12/08 18:54:55;;;;;;;20.50;13.70;;;;;;;;;;104470;1284;545581;-75
2023/12/08 18:58:36;;;;;;;26.80;16.60;;;;;;;;;;103733;1291;545003;-78
2023/12/08 19:02:39;;;;;;;28.30;16.40;;;;;;;;;;103668;1291;545301;-87
2023/12/08 19:06:10;;;;;;;30.90;19.10;;;;;;;;;;103700;1292;545444;-77
2023/12/08 19:09:28;;;;;;;29.80;18.70;;;;;;;;;;103730;1289;545233;-76
2023/12/08 19:13:00;;;;;;;28.20;16.10;;;;;;;;;;103884;1302;544791;-77
2023/12/08 19:16:40;;;;;;;25.50;15.40;;;;;;;;;;103609;1295;544934;-73
2023/12/08 19:20:17;;;;;;;23.10;16.10;;;;;;;;;;103896;1289;545663;-72
2023/12/08 19:23:51;;;;;;;21.00;14.50;;;;;;;;;;104070;1291;544963;-75
2023/12/08 19:27:52;;;;;;;20.20;14.20;;;;;;;;;;104178;1285;545076;-75
2023/12/08 19:31:10;;;;;;;23.60;15.30;;;;;;;;;;103817;1289;544973;-71
2023/12/08 19:34:46;;;;;;;19.70;13.20;;;;;;;;;;103943;1289;544904;-72
2023/12/08 19:38:32;;;;;;;22.60;14.60;;;;;;;;;;104382;1283;546101;-74
2023/12/08 19:42:02;;;;;;;24.00;15.00;;;;;;;;;;103778;1294;545437;-77
2023/12/08 19:45:39;;;;;;;24.30;16.00;;;;;;;;;;103962;1292;545348;-74
2023/12/08 19:49:17;;;;;;;22.10;13.30;;;;;;;;;;103767;1289;545679;-74
2023/12/08 19:52:55;;;;;;;19.90;13.30;;;;;;;;;;103778;1291;544764;-75
2023/12/08 19:56:32;;;;;;;20.20;13.80;;;;;;;;;;104011;1290;545011;-72
2023/12/08 20:00:11;;;;;;;20.20;15.10;;;;;;;;;;103833;1291;544927;-73
2023/12/08 20:03:53;;;;;;;21.10;14.20;;;;;;;;;;103665;1292;548422;-74
2023/12/08 20:07:22;;;;;;;19.20;13.80;;;;;;;;;;103912;1288;544608;-73
2023/12/08 20:11:04;;;;;;;20.20;14.40;;;;;;;;;;103820;1294;545815;-75
2023/12/08 20:14:44;;;;;;;22.30;15.50;;;;;;;;;;103693;1292;547619;-75
2023/12/08 20:18:17;;;;;;;27.80;16.90;;;;;;;;;;103862;1289;545091;-76
2023/12/08 20:21:50;;;;;;;21.70;14.60;;;;;;;;;;104729;1284;544803;-76
2023/12/08 20:25:31;;;;;;;24.60;14.90;;;;;;;;;;103940;1289;545181;-75
2023/12/08 20:29:10;;;;;;;23.30;16.30;;;;;;;;;;103747;1291;545019;-74
2023/12/08 20:32:49;;;;;;;20.70;14.60;;;;;;;;;;103964;1289;545444;-77
2023/12/08 20:36:23;;;;;;;22.50;15.30;;;;;;;;;;103797;1292;545390;-77
2023/12/08 20:40:04;;;;;;;22.00;14.90;;;;;;;;;;103817;1288;545038;-80
2023/12/08 20:43:41;;;;;;;23.80;16.30;;;;;;;;;;103776;1291;545530;-75
2023/12/08 20:47:23;;;;;;;30.00;20.40;;;;;;;;;;103877;1289;545221;-80
2023/12/08 20:50:54;;;;;;;26.80;18.10;;;;;;;;;;103797;1292;544990;-77
2023/12/08 20:54:31;;;;;;;22.80;15.40;;;;;;;;;;103800;1289;546549;-77
2023/12/08 20:58:15;;;;;;;24.20;16.50;;;;;;;;;;103615;1292;547407;-75
2023/12/08 21:01:46;;;;;;;22.10;15.40;;;;;;;;;;103907;1300;544961;-75